Lovendegem, Belgium
Current Conditions -  °F | °C
As of 8:55 AM on Sunday 26 Oct 2014 (Local Time) from EHFS Reporting Station
Overcast Overcast  
Wind Chill: 13°   Ceiling: 4100
Heat Index: 13°   Visibility: 6mi
Dew Point: 11°   Wind: 15mph
Humidity: 88%   Direction: 200°SSW
Pressure: 30.21"   Gusts: NA
Location:  51.1°N, 3.61°E
Report Text: EHFS 260655Z AUTO 20013KT 9999 OVC041/// 13/11 Q1023
Loading
Personal Weather Stations






























Interactive Weather Map
Tropical Storm Tracking
New forecast layout! Learn more

10-Day Weather Forecast

Advertisements
Track Severe Weather on mobile